Time;durP1;ratioP1;P1;durP2;ratioP2;P2;SDS_P1;SDS_P2;PMS_P1;PMS_P2;Temp;Humidity;BMP_temperature;BMP_pressure;BME280_temperature;BME280_humidity;BME280_pressure;Samples;Min_cycle;Max_cycle;Signal;HPM_P1;HPM_P2
2022/10/23 00:01:44;;;;;;;6.07;2.92;;;14.80;98.50;;;17.60;54.54;97653.97;4908218;29;20049;-48
2022/10/23 00:04:24;;;;;;;3.28;2.63;;;14.80;98.40;;;17.62;54.52;97653.72;4909946;29;20064;-50
2022/10/23 00:06:51;;;;;;;6.07;3.85;;;14.80;98.60;;;17.60;54.63;97653.97;4910202;29;20278;-48
2022/10/23 00:09:23;;;;;;;5.25;2.65;;;14.80;98.40;;;17.55;54.67;97655.63;4910333;29;20058;-48
2022/10/23 00:11:52;;;;;;;5.85;3.05;;;14.80;98.60;;;17.51;54.69;97647.94;4910193;29;20258;-48
2022/10/23 00:14:23;;;;;;;4.82;2.88;;;14.70;99.00;;;17.52;54.72;97651.44;4909551;29;20060;-49
2022/10/23 00:16:51;;;;;;;4.10;3.08;;;14.70;99.30;;;17.50;54.50;97646.25;4910047;29;20053;-48
2022/10/23 00:19:19;;;;;;;5.38;2.40;;;14.70;99.10;;;17.49;54.65;97649.19;4909776;29;20056;-49
2022/10/23 00:21:47;;;;;;;6.57;2.80;;;14.60;99.20;;;17.47;54.31;97653.94;4908583;29;20052;-48
2022/10/23 00:24:15;;;;;;;3.95;2.95;;;14.50;99.60;;;17.43;54.32;97656.22;4909209;29;20060;-49
2022/10/23 00:26:43;;;;;;;8.27;3.08;;;14.40;99.70;;;17.39;54.36;97660.34;4909713;29;20079;-50
2022/10/23 00:29:11;;;;;;;3.60;2.60;;;14.40;99.70;;;17.31;54.49;97657.81;4908925;29;20057;-51
2022/10/23 00:31:39;;;;;;;6.32;3.72;;;14.30;99.90;;;17.25;54.36;97656.81;4909910;29;20052;-49
2022/10/23 00:34:08;;;;;;;5.05;3.60;;;14.20;99.90;;;17.22;54.43;97659.06;4909368;29;20051;-50
2022/10/23 00:36:36;;;;;;;3.85;2.83;;;14.20;99.90;;;17.17;54.50;97654.28;4909255;29;20063;-50
2022/10/23 00:39:05;;;;;;;6.88;3.85;;;14.10;99.90;;;17.15;54.50;97669.78;4892902;29;20052;-48
2022/10/23 00:41:33;;;;;;;3.75;2.85;;;14.10;99.90;;;17.10;54.50;97656.97;4910462;29;20074;-49
2022/10/23 00:44:28;;;;;;;5.28;3.00;;;14.00;99.90;;;17.07;54.62;97651.97;4909451;29;20056;-48
2022/10/23 00:46:58;;;;;;;7.22;2.80;;;14.00;99.90;;;17.04;54.63;97647.03;4909418;29;20399;-51
2022/10/23 00:49:27;;;;;;;6.40;2.63;;;14.00;99.90;;;17.00;54.77;97635.00;4908321;29;20362;-49
2022/10/23 00:51:59;;;;;;;4.30;2.80;;;14.00;99.90;;;16.98;54.95;97641.59;4893107;29;20278;-50
2022/10/23 00:54:36;;;;;;;3.92;2.85;;;14.00;99.90;;;16.96;54.76;97636.44;4909001;29;20063;-50
2022/10/23 00:57:12;;;;;;;4.10;2.95;;;14.00;99.90;;;16.92;54.90;97640.56;4893628;29;20231;-51
2022/10/23 00:59:41;;;;;;;6.57;2.83;;;13.90;99.90;;;16.90;54.96;97643.47;4909387;29;20048;-47
2022/10/23 01:02:09;;;;;;;4.35;3.40;;;13.90;99.90;;;16.88;55.22;97639.31;4909330;29;20048;-47
2022/10/23 01:04:38;;;;;;;3.38;2.65;;;13.90;99.90;;;16.87;55.24;97634.97;4908760;29;20059;-48
2022/10/23 01:07:14;;;;;;;3.50;2.95;;;13.90;99.90;;;16.87;55.40;97634.97;4892847;29;20060;-49
2022/10/23 01:10:02;;;;;;;4.57;3.00;;;13.90;99.90;;;16.86;55.36;97630.59;4890266;29;20067;-51
2022/10/23 01:13:09;;;;;;;3.80;2.95;;;13.90;99.90;;;16.80;55.33;97634.91;4906955;29;20056;-49
2022/10/23 01:15:56;;;;;;;5.32;3.25;;;13.90;99.90;;;16.83;55.55;97636.41;4878864;29;20401;-49
2022/10/23 01:19:11;;;;;;;5.35;3.38;;;13.90;99.90;;;16.80;55.45;97626.84;4892612;29;20057;-51
2022/10/23 01:21:57;;;;;;;5.97;2.78;;;13.90;99.90;;;16.82;55.55;97626.66;4834886;29;20057;-50
2022/10/23 01:25:01;;;;;;;7.65;2.92;;;13.90;99.90;;;16.76;55.64;97616.69;4891444;29;20052;-48
2022/10/23 01:27:39;;;;;;;6.53;2.42;;;14.00;99.90;;;16.82;55.77;97618.59;4877556;29;20056;-48
2022/10/23 01:30:14;;;;;;;5.05;2.67;;;14.00;99.90;;;16.81;55.88;97619.59;4892516;29;20061;-49
2022/10/23 01:33:03;;;;;;;6.93;2.92;;;14.00;99.90;;;16.80;56.08;97610.69;4907352;29;20056;-50
2022/10/23 01:35:59;;;;;;;5.80;2.85;;;14.00;99.90;;;16.81;55.90;97606.16;4891310;29;20052;-50
2022/10/23 01:38:37;;;;;;;4.85;2.40;;;14.10;99.90;;;16.81;55.79;97607.00;4908592;29;20051;-48
2022/10/23 01:41:45;;;;;;;6.38;2.70;;;14.00;99.90;;;16.79;55.69;97590.25;4877765;29;20057;-51
2022/10/23 01:44:38;;;;;;;3.63;2.60;;;14.00;99.90;;;16.75;56.02;97591.69;4892101;29;20056;-50
2022/10/23 01:47:09;;;;;;;2.58;2.20;;;14.00;99.90;;;16.64;56.05;97592.25;4891675;29;20066;-52
2022/10/23 01:49:53;;;;;;;5.63;2.78;;;13.90;99.90;;;16.63;56.22;97593.28;4877861;29;20056;-50
2022/10/23 01:52:22;;;;;;;3.78;2.45;;;13.80;99.90;;;16.64;56.24;97587.69;4891420;29;20350;-49
2022/10/23 01:54:55;;;;;;;7.18;2.50;;;13.80;99.90;;;16.65;56.18;97597.44;4890516;29;20055;-49
2022/10/23 01:57:27;;;;;;;4.68;2.38;;;13.80;99.90;;;16.69;56.24;97593.31;4891740;29;20048;-48
2022/10/23 02:00:07;;;;;;;4.45;2.53;;;13.90;99.90;;;16.69;56.11;97597.84;4906503;29;20064;-50
2022/10/23 02:02:52;;;;;;;4.50;2.20;;;13.90;99.90;;;16.73;55.89;97601.81;4911763;29;20239;-49
2022/10/23 02:05:28;;;;;;;3.30;2.03;;;13.90;99.90;;;16.75;56.37;97586.31;4876222;29;20063;-48
2022/10/23 02:07:59;;;;;;;4.43;2.38;;;13.90;99.90;;;16.80;56.03;97583.81;4876515;29;20060;-48
2022/10/23 02:10:42;;;;;;;4.22;2.53;;;13.90;99.90;;;16.78;56.02;97585.06;4875854;29;20061;-48
2022/10/23 02:13:47;;;;;;;4.13;2.80;;;13.90;99.90;;;16.81;55.76;97584.63;4908054;29;20052;-51
2022/10/23 02:16:53;;;;;;;3.85;2.40;;;13.90;99.90;;;16.84;55.92;97576.22;4905911;29;20052;-51
2022/10/23 02:19:37;;;;;;;7.97;2.80;;;14.00;99.90;;;16.86;55.96;97572.28;4877858;29;20056;-49
2022/10/23 02:22:28;;;;;;;4.03;2.67;;;14.00;99.90;;;16.80;55.84;97558.81;4890955;29;20205;-48
2022/10/23 02:25:11;;;;;;;4.05;2.30;;;14.00;99.90;;;16.77;56.26;97564.56;4907205;29;20044;-51
2022/10/23 02:27:52;;;;;;;3.45;2.83;;;14.00;99.90;;;16.80;56.00;97561.50;4890867;29;20060;-51
2022/10/23 02:30:24;;;;;;;3.43;2.80;;;13.90;99.90;;;16.76;56.05;97565.63;4891598;29;20056;-48
2022/10/23 02:33:07;;;;;;;3.88;2.38;;;13.90;99.90;;;16.72;56.04;97562.50;4892723;29;20623;-48
2022/10/23 02:35:35;;;;;;;3.55;2.67;;;13.80;99.90;;;16.71;56.08;97564.38;4905760;29;20343;-48
2022/10/23 02:38:43;;;;;;;4.47;2.55;;;13.80;99.90;;;16.72;56.10;97554.44;4890352;29;20350;-50
2022/10/23 02:41:38;;;;;;;4.45;2.30;;;13.90;99.90;;;16.73;56.10;97553.41;4891311;29;20055;-48
2022/10/23 02:44:30;;;;;;;2.95;2.08;;;13.80;99.90;;;16.76;55.98;97552.19;4905559;29;20278;-50
2022/10/23 02:47:03;;;;;;;5.18;2.20;;;13.90;99.90;;;16.79;56.05;97549.06;4907323;29;20068;-48
2022/10/23 02:50:08;;;;;;;4.95;2.80;;;14.00;99.90;;;16.79;56.19;97531.09;4890766;29;20366;-51
2022/10/23 02:53:10;;;;;;;9.18;2.50;;;14.00;99.90;;;16.79;56.00;97530.25;4893196;29;20114;-49
2022/10/23 02:56:16;;;;;;;6.38;2.55;;;14.10;99.90;;;16.79;55.99;97539.16;4889802;29;20068;-49
2022/10/23 02:58:53;;;;;;;3.83;2.00;;;14.10;99.90;;;16.78;56.25;97525.91;4905837;29;20052;-48
2022/10/23 03:01:30;;;;;;;3.90;2.33;;;14.10;99.90;;;16.79;56.11;97528.41;4876272;29;20056;-52
2022/10/23 03:04:01;;;;;;;6.28;2.28;;;14.20;99.90;;;16.79;56.20;97531.09;4890316;29;20290;-48
2022/10/23 03:06:32;;;;;;;4.13;2.33;;;14.20;99.90;;;16.83;56.04;97534.25;4890256;29;20052;-51
2022/10/23 03:09:08;;;;;;;3.28;2.92;;;14.20;99.90;;;16.86;56.13;97526.56;4890623;29;20062;-52
2022/10/23 03:11:35;;;;;;;3.08;1.98;;;14.20;99.90;;;16.83;56.04;97526.19;4907216;29;20059;-51
2022/10/23 03:14:03;;;;;;;3.72;3.22;;;14.10;99.90;;;16.82;56.00;97532.56;4904987;29;20061;-51
2022/10/23 03:16:31;;;;;;;3.38;2.83;;;14.00;99.90;;;16.76;56.11;97526.13;4890494;29;20062;-47
2022/10/23 03:18:59;;;;;;;5.55;3.13;;;13.90;99.90;;;16.73;56.16;97523.84;4889585;29;20086;-52
2022/10/23 03:21:29;;;;;;;4.10;2.92;;;13.80;99.90;;;16.72;56.25;97533.75;4905762;29;20049;-48
2022/10/23 03:23:57;;;;;;;4.93;2.63;;;13.80;99.90;;;16.70;56.34;97529.63;4906863;29;20072;-50
2022/10/23 03:26:34;;;;;;;4.05;2.60;;;13.80;99.90;;;16.69;56.17;97528.81;4905355;29;20058;-48
2022/10/23 03:29:04;;;;;;;5.22;2.53;;;13.80;99.90;;;16.66;56.15;97531.88;4889426;29;20062;-49
2022/10/23 03:31:35;;;;;;;3.72;2.28;;;13.80;99.90;;;16.63;56.45;97524.22;4890073;29;20056;-49
2022/10/23 03:34:08;;;;;;;3.22;2.50;;;13.70;99.90;;;16.60;56.44;97521.13;4906411;29;20051;-49
2022/10/23 03:36:38;;;;;;;4.25;2.30;;;13.70;99.90;;;16.62;56.53;97524.44;4892099;29;20254;-53
2022/10/23 03:39:08;;;;;;;2.63;2.00;;;13.70;99.90;;;16.63;56.26;97523.38;4908954;29;20058;-49
2022/10/23 03:41:35;;;;;;;4.55;2.33;;;13.80;99.90;;;16.61;56.33;97520.91;4893617;29;20351;-48
2022/10/23 03:44:04;;;;;;;9.30;2.75;;;13.80;99.90;;;16.58;56.54;97520.50;4893312;29;20056;-53
2022/10/23 03:46:36;;;;;;;5.50;2.53;;;13.70;99.90;;;16.59;56.36;97527.53;4910901;29;20266;-48
2022/10/23 03:49:04;;;;;;;5.35;2.45;;;13.70;99.90;;;16.53;56.79;97529.97;4910730;29;20048;-50
2022/10/23 03:51:33;;;;;;;4.65;2.70;;;13.60;99.90;;;16.54;56.52;97515.53;4909626;29;20255;-51
2022/10/23 03:54:01;;;;;;;2.63;2.10;;;13.60;99.90;;;16.57;56.59;97513.47;4910556;29;20263;-49
2022/10/23 03:56:29;;;;;;;4.53;2.42;;;13.70;99.90;;;16.54;56.72;97518.22;4892718;29;20052;-48
2022/10/23 03:58:57;;;;;;;4.78;2.42;;;13.70;99.90;;;16.57;56.73;97514.28;4910385;29;20060;-49
2022/10/23 04:01:26;;;;;;;2.97;1.98;;;13.70;99.90;;;16.59;56.79;97516.78;4893431;29;20255;-51
2022/10/23 04:03:54;;;;;;;4.97;2.47;;;13.70;99.90;;;16.57;56.53;97524.22;4893542;29;20056;-50
2022/10/23 04:06:25;;;;;;;3.58;2.67;;;13.70;99.90;;;16.53;56.75;97531.84;4893337;29;20059;-49
2022/10/23 04:08:56;;;;;;;3.60;2.65;;;13.60;99.90;;;16.48;56.96;97526.25;4907749;29;20040;-49
2022/10/23 04:11:24;;;;;;;3.75;2.40;;;13.50;99.90;;;16.51;57.02;97520.47;4892654;29;20060;-48
2022/10/23 04:13:52;;;;;;;4.07;2.30;;;13.50;99.90;;;16.59;56.91;97519.47;4908923;29;20053;-49
2022/10/23 04:16:20;;;;;;;5.50;2.08;;;13.60;99.90;;;16.63;56.75;97515.31;4909892;29;20239;-53
2022/10/23 04:18:49;;;;;;;3.80;3.45;;;13.70;99.90;;;16.68;56.88;97523.63;4893153;29;20059;-50
2022/10/23 04:21:17;;;;;;;4.25;2.55;;;13.70;99.90;;;16.70;56.85;97517.00;4908848;29;20383;-50
2022/10/23 04:23:45;;;;;;;4.95;2.38;;;13.70;99.90;;;16.73;56.43;97529.22;4910067;29;20048;-49
2022/10/23 04:26:15;;;;;;;2.45;2.20;;;13.80;99.90;;;16.73;56.73;97516.59;4892682;29;20245;-49
2022/10/23 04:28:43;;;;;;;3.70;2.10;;;13.80;99.90;;;16.74;56.77;97514.75;4909851;29;20380;-52
2022/10/23 04:31:11;;;;;;;8.23;2.28;;;13.90;99.90;;;16.76;56.71;97514.53;4908291;29;20063;-48
2022/10/23 04:33:41;;;;;;;5.40;2.05;;;14.00;99.90;;;16.75;56.62;97516.41;4878102;29;20251;-51
2022/10/23 04:36:09;;;;;;;5.88;3.05;;;14.00;99.90;;;16.76;56.67;97512.69;4908957;29;20056;-50
2022/10/23 04:38:39;;;;;;;3.90;2.40;;;14.00;99.90;;;16.79;56.51;97516.81;4892702;29;20058;-48
2022/10/23 04:41:07;;;;;;;4.38;2.25;;;14.00;99.90;;;16.81;56.50;97512.91;4892881;29;20049;-50
2022/10/23 04:43:36;;;;;;;6.47;2.20;;;14.00;99.90;;;16.84;56.46;97519.75;4908149;29;20065;-48
2022/10/23 04:46:04;;;;;;;3.28;2.40;;;14.10;99.90;;;16.83;56.35;97513.56;4892974;29;20067;-49
2022/10/23 04:48:33;;;;;;;3.75;2.13;;;14.10;99.90;;;16.82;56.15;97525.31;4877319;29;20061;-50
2022/10/23 04:51:20;;;;;;;2.63;1.88;;;14.00;99.90;;;16.83;56.42;97512.75;4910859;29;20054;-48
2022/10/23 04:54:03;;;;;;;2.47;2.08;;;14.10;99.90;;;16.78;56.49;97505.22;4892621;29;20346;-50
2022/10/23 04:56:40;;;;;;;3.38;2.83;;;14.10;99.90;;;16.77;56.49;97503.59;4912306;29;20044;-50
2022/10/23 04:59:13;;;;;;;5.10;2.50;;;14.10;99.90;;;16.80;56.45;97510.41;4892572;29;20063;-50
2022/10/23 05:01:42;;;;;;;3.05;2.00;;;14.10;99.90;;;16.83;56.33;97510.06;4908270;29;20258;-51
2022/10/23 05:04:10;;;;;;;6.20;2.03;;;14.20;99.90;;;16.85;56.52;97506.13;4909020;29;20040;-48
2022/10/23 05:06:56;;;;;;;3.80;2.10;;;14.20;99.90;;;16.83;56.23;97505.50;4913484;29;20050;-51
2022/10/23 05:09:45;;;;;;;3.42;1.98;;;14.20;99.90;;;16.81;56.42;97512.91;4892669;29;20056;-51
2022/10/23 05:12:36;;;;;;;5.72;2.10;;;14.10;99.90;;;16.86;56.33;97496.19;4909179;29;20201;-48
2022/10/23 05:15:04;;;;;;;2.65;2.10;;;14.10;99.90;;;16.86;56.13;97498.88;4907122;29;20053;-50
2022/10/23 05:17:35;;;;;;;3.38;2.10;;;14.10;99.90;;;16.88;56.41;97499.50;4909232;29;20044;-49
2022/10/23 05:20:08;;;;;;;4.97;2.20;;;14.20;99.90;;;16.92;55.95;97498.03;4892479;29;20049;-48
2022/10/23 05:22:40;;;;;;;5.82;2.20;;;14.20;99.90;;;16.93;56.09;97487.09;4892088;29;20109;-51
2022/10/23 05:25:12;;;;;;;3.23;2.27;;;14.20;99.90;;;16.99;55.82;97492.69;4892654;29;20362;-50
2022/10/23 05:27:45;;;;;;;3.83;2.17;;;14.10;99.90;;;16.98;55.93;97489.16;4907384;29;20249;-50
2022/10/23 05:30:16;;;;;;;4.15;2.20;;;14.10;99.90;;;16.96;55.75;97485.03;4907474;29;20052;-48
2022/10/23 05:32:44;;;;;;;2.67;2.10;;;14.10;99.90;;;16.95;55.74;97488.75;4892073;29;20056;-53
2022/10/23 05:35:20;;;;;;;4.57;2.20;;;14.10;99.90;;;16.96;55.85;97490.41;4876126;29;20061;-50
2022/10/23 05:37:52;;;;;;;4.32;2.30;;;14.20;99.90;;;16.94;55.78;97490.59;4907227;29;20061;-48
2022/10/23 05:40:22;;;;;;;2.97;2.10;;;14.20;99.90;;;16.94;55.76;97485.22;4877057;29;20053;-50
2022/10/23 05:42:57;;;;;;;2.60;1.88;;;14.20;99.90;;;16.95;55.98;97483.38;4892778;29;20299;-47
2022/10/23 05:45:46;;;;;;;5.88;3.35;;;14.20;99.90;;;16.91;55.73;97477.59;4901203;29;20066;-50
2022/10/23 05:48:39;;;;;;;3.08;2.17;;;14.10;99.90;;;16.85;55.91;97475.72;4908552;29;20250;-50
2022/10/23 05:51:36;;;;;;;3.33;1.90;;;14.10;99.90;;;16.82;56.01;97473.44;4891707;29;20056;-48
2022/10/23 05:54:19;;;;;;;4.10;1.90;;;14.10;99.90;;;16.83;55.98;97473.22;4891127;29;20066;-48
2022/10/23 05:56:59;;;;;;;3.83;2.00;;;14.10;99.90;;;16.83;55.75;97462.47;4891358;29;20258;-49
2022/10/23 05:59:32;;;;;;;2.42;1.85;;;14.10;99.90;;;16.87;55.83;97477.16;4906255;29;20060;-49
2022/10/23 06:02:33;;;;;;;2.55;1.98;;;14.10;99.90;;;16.88;55.67;97469.91;4879999;29;20059;-47
2022/10/23 06:05:10;;;;;;;4.18;2.90;;;14.10;99.90;;;16.89;55.96;97466.22;4891176;29;20380;-53
2022/10/23 06:07:55;;;;;;;3.70;2.40;;;14.10;99.90;;;16.87;55.73;97470.97;4891514;29;20071;-49
2022/10/23 06:10:23;;;;;;;4.25;3.03;;;14.00;99.90;;;16.87;55.89;97462.91;4906336;29;20557;-50
2022/10/23 06:12:52;;;;;;;4.32;2.65;;;14.10;99.90;;;16.87;55.85;97466.41;4908149;29;20056;-48
2022/10/23 06:15:20;;;;;;;5.63;4.38;;;14.10;99.90;;;16.94;55.81;97469.09;4890679;29;20057;-51
2022/10/23 06:18:03;;;;;;;5.95;3.15;;;14.10;99.90;;;16.98;55.98;97467.63;4891223;29;20351;-49
2022/10/23 06:20:38;;;;;;;2.67;2.00;;;14.20;99.90;;;17.01;55.63;97459.16;4905357;29;20265;-49
2022/10/23 06:23:20;;;;;;;2.97;2.00;;;14.20;99.90;;;17.04;55.54;97453.38;4906567;29;20049;-48
2022/10/23 06:26:12;;;;;;;3.58;2.28;;;14.10;99.90;;;17.07;55.50;97455.66;4891395;29;20351;-49
2022/10/23 06:28:52;;;;;;;5.28;2.38;;;14.20;99.90;;;17.10;55.55;97454.44;4891140;29;20060;-49
2022/10/23 06:31:25;;;;;;;4.85;2.45;;;14.20;99.90;;;17.13;55.38;97460.19;4889814;29;20056;-48
2022/10/23 06:33:57;;;;;;;3.90;2.42;;;14.20;99.90;;;17.17;55.53;97459.78;4888981;29;20368;-48
2022/10/23 06:36:26;;;;;;;4.70;1.85;;;14.30;99.90;;;17.23;55.41;97464.34;4905030;29;20242;-49
2022/10/23 06:39:20;;;;;;;2.33;2.10;;;14.30;99.90;;;17.29;55.04;97463.50;4889927;29;20052;-49
2022/10/23 06:42:03;;;;;;;4.55;1.83;;;14.40;99.90;;;17.27;55.23;97454.81;4889998;29;20055;-49
2022/10/23 06:45:00;;;;;;;3.85;2.47;;;14.50;99.90;;;17.31;55.25;97458.72;4893879;29;20067;-48
2022/10/23 06:47:52;;;;;;;3.55;2.00;;;14.50;99.90;;;17.28;55.26;97446.53;4910532;29;20058;-53
2022/10/23 06:50:54;;;;;;;4.22;1.92;;;14.50;99.90;;;17.21;54.98;97437.63;4896639;29;20062;-51
2022/10/23 06:53:34;;;;;;;3.63;2.03;;;14.50;99.90;;;17.11;55.19;97434.53;4891287;29;20052;-50
2022/10/23 06:56:11;;;;;;;2.10;1.80;;;14.60;99.70;;;17.10;55.34;97436.41;4889371;29;20368;-49
2022/10/23 06:58:40;;;;;;;2.75;2.13;;;14.60;99.80;;;17.11;55.21;97439.94;4889225;29;20062;-50
2022/10/23 07:01:15;;;;;;;3.03;2.38;;;14.50;99.90;;;17.15;55.36;97435.78;4904737;29;20049;-49
2022/10/23 07:03:46;;;;;;;2.67;2.08;;;14.50;99.50;;;17.16;55.28;97447.38;4904953;29;20059;-51
2022/10/23 07:06:16;;;;;;;5.70;2.00;;;14.50;99.90;;;17.18;55.01;97442.63;4889074;29;20063;-51
2022/10/23 07:08:44;;;;;;;5.30;2.08;;;14.50;99.70;;;17.19;55.12;97445.09;4889527;29;20056;-49
2022/10/23 07:11:32;;;;;;;2.80;1.88;;;14.50;99.90;;;17.21;54.95;97442.19;4905546;29;20063;-49
2022/10/23 07:14:01;;;;;;;4.18;1.85;;;14.40;99.60;;;17.23;55.03;97440.13;4904206;29;20057;-49
2022/10/23 07:16:30;;;;;;;2.10;1.55;;;14.40;99.70;;;17.20;54.91;97449.44;4905702;29;20045;-49
2022/10/23 07:19:00;;;;;;;4.20;2.30;;;14.40;99.90;;;17.19;54.83;97447.78;4904313;29;20251;-49
2022/10/23 07:21:31;;;;;;;2.92;1.77;;;14.40;99.90;;;17.22;55.09;97446.56;4906063;29;20070;-51
2022/10/23 07:24:30;;;;;;;2.17;1.75;;;14.40;99.90;;;17.22;54.96;97452.75;4855227;29;20163;-53
2022/10/23 07:27:00;;;;;;;3.92;2.33;;;14.50;99.90;;;17.24;55.04;97442.59;4889179;29;20058;-50
2022/10/23 07:29:29;;;;;;;2.80;1.80;;;14.50;99.90;;;17.26;55.06;97447.78;4904961;29;20095;-49
2022/10/23 07:31:59;;;;;;;2.58;2.00;;;14.50;99.90;;;17.28;54.97;97448.41;4889060;29;20061;-49
2022/10/23 07:34:46;;;;;;;2.90;1.88;;;14.50;99.90;;;17.34;54.91;97447.56;4908274;29;20051;-54
2022/10/23 07:37:22;;;;;;;2.97;2.10;;;14.50;99.90;;;17.37;54.76;97449.84;4888946;29;20059;-50
2022/10/23 07:39:50;;;;;;;4.10;1.50;;;14.50;99.90;;;17.39;54.81;97453.16;4888220;29;20289;-53
2022/10/23 07:42:18;;;;;;;3.38;1.30;;;14.60;99.90;;;17.43;54.73;97453.56;4888941;29;20052;-51
2022/10/23 07:44:47;;;;;;;2.08;1.40;;;14.60;99.50;;;17.46;54.47;97455.81;4903764;29;20057;-50
2022/10/23 07:47:15;;;;;;;2.78;1.40;;;14.70;98.90;;;17.52;53.93;97465.75;4904603;29;20232;-49
2022/10/23 07:49:48;;;;;;;4.07;1.65;;;14.70;97.90;;;17.56;54.04;97461.59;4904372;29;20063;-51
2022/10/23 07:52:16;;;;;;;1.85;1.27;;;14.80;96.90;;;17.61;53.82;97461.81;4888918;29;20070;-48
2022/10/23 07:55:10;;;;;;;5.32;1.70;;;14.90;96.20;;;17.71;53.52;97464.88;4903479;29;20106;-52
2022/10/23 07:57:44;;;;;;;2.17;1.55;;;15.00;95.50;;;17.77;53.58;97460.50;4904686;29;20045;-51
2022/10/23 08:00:31;;;;;;;2.72;1.42;;;15.10;95.30;;;17.84;53.36;97458.66;4888195;29;20057;-53
2022/10/23 08:03:11;;;;;;;1.65;1.45;;;15.10;94.80;;;17.89;53.38;97450.78;4889192;29;20055;-50
2022/10/23 08:05:39;;;;;;;1.48;1.27;;;15.20;94.70;;;17.96;53.19;97452.63;4887770;29;20063;-53
2022/10/23 08:08:08;;;;;;;1.92;1.60;;;15.20;94.20;;;17.98;52.99;97451.38;4904586;29;20274;-49
2022/10/23 08:10:40;;;;;;;1.83;1.15;;;15.30;93.70;;;18.05;52.85;97444.09;4889007;29;20365;-53
2022/10/23 08:13:13;;;;;;;1.17;1.08;;;15.40;92.80;;;18.03;52.75;97432.72;4903863;29;20053;-49
2022/10/23 08:15:52;;;;;;;1.73;1.35;;;15.40;92.60;;;18.06;53.19;97437.66;4889285;29;20067;-51
2022/10/23 08:18:50;;;;;;;1.48;1.10;;;15.50;93.00;;;18.13;53.22;97448.41;4903548;29;20277;-50
2022/10/23 08:21:19;;;;;;;2.10;0.90;;;15.50;93.10;;;18.15;53.23;97437.44;4906293;29;20052;-51
2022/10/23 08:23:51;;;;;;;2.40;1.08;;;15.60;93.10;;;18.17;53.23;97438.03;4892658;29;20071;-52
2022/10/23 08:26:20;;;;;;;4.50;1.30;;;15.60;93.40;;;18.19;53.33;97430.56;4892301;29;20059;-50
2022/10/23 08:28:48;;;;;;;2.88;1.67;;;15.60;93.60;;;18.21;53.36;97433.88;4888109;29;20052;-53
2022/10/23 08:31:19;;;;;;;3.70;1.13;;;15.70;93.20;;;18.22;53.25;97424.72;4874550;29;20057;-51
2022/10/23 08:34:11;;;;;;;3.05;1.10;;;15.70;93.10;;;18.30;53.06;97419.09;4881263;29;20063;-48
2022/10/23 08:36:39;;;;;;;8.50;2.08;;;15.70;92.70;;;18.33;52.94;97424.03;4890967;29;20079;-50
2022/10/23 08:39:08;;;;;;;1.70;1.15;;;15.80;92.70;;;18.38;53.04;97426.09;4898662;29;20063;-52
2022/10/23 08:41:49;;;;;;;1.33;1.20;;;15.80;92.40;;;18.40;52.70;97424.84;4905264;29;20056;-49
2022/10/23 08:44:57;;;;;;;2.03;1.38;;;15.90;91.30;;;18.38;52.84;97421.53;4905490;29;20351;-51
2022/10/23 08:47:43;;;;;;;1.65;1.10;;;15.90;91.10;;;18.48;53.00;97426.47;4889811;29;20083;-50
2022/10/23 08:50:46;;;;;;;1.17;1.08;;;16.00;91.90;;;18.50;52.99;97422.50;4891669;29;20044;-49
2022/10/23 08:53:32;;;;;;;1.20;0.90;;;16.00;92.20;;;18.54;53.04;97420.19;4903066;29;20254;-49
2022/10/23 08:56:16;;;;;;;2.17;1.08;;;16.00;92.10;;;18.57;52.90;97425.16;4916464;29;20056;-50
2022/10/23 08:58:51;;;;;;;2.15;1.20;;;16.10;92.00;;;18.63;52.84;97418.91;4909313;29;20056;-51
2022/10/23 09:01:31;;;;;;;1.48;0.90;;;16.20;92.20;;;18.74;52.70;97413.84;4894622;29;20059;-51
2022/10/23 09:04:01;;;;;;;1.52;1.40;;;16.20;91.80;;;18.83;52.47;97424.16;4909079;29;20266;-48
2022/10/23 09:06:50;;;;;;;2.40;1.40;;;16.30;91.40;;;18.91;52.44;97428.47;4907742;29;20063;-52
2022/10/23 09:09:55;;;;;;;1.98;1.33;;;16.40;90.90;;;19.01;52.49;97425.28;4909018;29;20052;-51
2022/10/23 09:12:27;;;;;;;2.42;1.10;;;16.40;89.80;;;19.08;51.74;97420.66;4909164;29;20066;-49
2022/10/23 09:15:21;;;;;;;1.52;1.40;;;16.50;89.50;;;19.14;51.71;97427.03;4907181;29;20062;-53
2022/10/23 09:17:57;;;;;;;2.57;1.20;;;16.60;88.20;;;19.23;51.46;97433.78;4908968;29;20254;-50
2022/10/23 09:20:33;;;;;;;1.20;1.10;;;16.60;88.30;;;19.25;51.39;97427.13;4906937;29;20053;-49
2022/10/23 09:23:15;;;;;;;1.63;0.88;;;16.70;87.30;;;19.33;51.32;97430.56;4909175;29;20063;-51
2022/10/23 09:25:46;;;;;;;2.05;1.30;;;16.70;87.80;;;19.39;51.15;97421.63;4907142;29;20066;-52
2022/10/23 09:28:24;;;;;;;2.50;1.48;;;16.80;87.90;;;19.46;51.26;97408.84;4909108;29;20055;-52
2022/10/23 09:30:53;;;;;;;1.98;0.95;;;16.90;87.10;;;19.52;50.44;97412.53;4908779;29;20048;-49
2022/10/23 09:33:25;;;;;;;1.40;0.90;;;16.90;86.10;;;19.56;50.11;97408.34;4908438;29;20048;-49
2022/10/23 09:36:01;;;;;;;3.63;1.20;;;17.00;84.90;;;19.65;50.31;97394.31;4908457;29;20060;-48
2022/10/23 09:38:35;;;;;;;2.35;0.82;;;17.10;84.80;;;19.67;50.96;97403.00;4909091;29;20061;-50
2022/10/23 09:41:25;;;;;;;6.57;1.00;;;17.20;86.40;;;19.76;50.59;97398.19;4908480;29;20050;-49
2022/10/23 09:44:05;;;;;;;1.33;1.20;;;17.30;85.10;;;19.82;50.75;97393.75;4909115;29;20334;-47
2022/10/23 09:46:43;;;;;;;2.25;1.20;;;17.40;85.10;;;19.88;50.68;97381.22;4907188;29;20174;-47
2022/10/23 09:49:34;;;;;;;1.95;1.30;;;17.40;85.10;;;19.93;50.20;97376.78;4908601;29;20052;-51
2022/10/23 09:52:11;;;;;;;1.88;1.10;;;17.50;83.50;;;19.99;49.79;97378.56;4908240;29;20066;-51
2022/10/23 09:54:54;;;;;;;1.30;0.88;;;17.50;84.00;;;20.06;49.69;97376.63;4907596;29;20068;-48
2022/10/23 09:57:35;;;;;;;1.75;1.25;;;17.60;81.00;;;20.15;49.22;97370.88;4892368;29;20044;-48
2022/10/23 10:00:16;;;;;;;2.80;1.30;;;17.60;81.00;;;20.20;49.20;97377.25;4908196;29;20056;-52
2022/10/23 10:02:58;;;;;;;1.20;1.10;;;17.70;80.80;;;20.29;49.17;97388.53;4908276;29;20259;-49
2022/10/23 10:05:43;;;;;;;1.58;0.98;;;17.70;79.10;;;20.36;48.49;97397.41;4906716;29;20059;-47
2022/10/23 10:08:35;;;;;;;1.45;1.20;;;17.80;80.10;;;20.47;48.48;97414.69;4906877;29;20249;-50
2022/10/23 10:11:34;;;;;;;1.50;1.15;;;18.00;77.60;;;20.52;48.40;97404.03;4891394;29;20082;-49
2022/10/23 10:14:26;;;;;;;1.55;1.05;;;18.10;77.30;;;20.61;48.31;97394.56;4891300;29;20056;-51
2022/10/23 10:17:05;;;;;;;0.90;0.80;;;18.10;77.00;;;20.70;47.63;97386.91;4906856;29;20058;-47
2022/10/23 10:20:09;;;;;;;2.55;1.17;;;18.20;75.50;;;20.75;47.76;97381.66;4892006;29;20071;-50
2022/10/23 10:23:12;;;;;;;1.58;1.00;;;18.30;74.60;;;20.79;47.39;97382.00;4908181;29;20338;-50
2022/10/23 10:26:29;;;;;;;1.20;1.10;;;18.30;73.80;;;20.84;47.28;97377.56;4893305;29;20060;-49
2022/10/23 10:29:13;;;;;;;1.77;1.00;;;18.40;72.90;;;20.95;47.31;97391.31;4893094;29;20058;-48
2022/10/23 10:32:18;;;;;;;2.60;1.17;;;18.40;75.20;;;21.02;47.69;97386.63;4891295;29;20351;-51
2022/10/23 10:35:17;;;;;;;6.50;1.00;;;18.60;74.30;;;21.11;47.20;97379.81;4893167;29;20258;-50
2022/10/23 10:38:16;;;;;;;3.55;1.50;;;18.60;72.90;;;21.18;47.51;97369.66;4891097;29;20059;-52
2022/10/23 10:41:40;;;;;;;3.00;1.70;;;18.70;72.20;;;21.26;47.08;97348.72;4891058;29;20054;-50
2022/10/23 10:44:23;;;;;;;1.90;1.58;;;18.80;71.80;;;21.35;46.16;97339.19;4890319;29;20370;-48
2022/10/23 10:47:36;;;;;;;1.85;1.00;;;18.80;73.10;;;21.32;46.78;97329.63;4906482;29;20063;-48
2022/10/23 10:50:25;;;;;;;1.30;1.20;;;18.80;71.10;;;21.36;46.62;97330.00;4876573;29;20057;-52
2022/10/23 10:53:18;;;;;;;2.72;0.90;;;18.80;73.50;;;21.39;46.60;97349.28;4907403;29;20250;-53
2022/10/23 10:55:52;;;;;;;1.95;1.17;;;18.80;73.90;;;21.41;46.49;97352.59;4906684;29;20052;-49
2022/10/23 10:58:46;;;;;;;1.90;0.85;;;18.90;72.90;;;21.49;46.31;97367.69;4891276;29;20246;-47
2022/10/23 11:01:33;;;;;;;1.77;1.08;;;19.00;70.90;;;21.57;46.43;97361.88;4907190;29;20049;-51
2022/10/23 11:04:33;;;;;;;2.20;1.20;;;19.00;72.50;;;21.62;46.45;97362.00;4892513;29;20044;-46
2022/10/23 11:07:11;;;;;;;1.08;0.98;;;19.10;71.80;;;21.68;46.46;97362.94;4907028;29;20067;-49
2022/10/23 11:09:42;;;;;;;2.00;1.17;;;19.20;72.30;;;21.70;46.00;97360.00;4906959;29;20056;-47